Fort Wayne, IN (46802)

6:19 PM EDT on October 22, 2014 (GMT -0400)
KINFORTW21 | Change Station
CLOSE
Current Station
Personal Weather Station
Location: Fort Wayne, IN
Elevation: 809 ft
Nearby Weather Stations

Elev 809 ft 41.04 °N, 85.13 °W | Updated 9 minutes ago

Partly Cloudy
Partly Cloudy
49.5 °F
Feels Like 49 °F
N
3.5
Wind Variable Wind from East
Gusts 3.5 mph

Today
High -- | Low -- °F
--% Chance of Precip.
Yesterday
High -- | Low -- °F
Precip. -- in
7:59 AM 6:49 PM
Waning Crescent, 1% visible
Pressure 30.32 in
Visibility 10.0 miles
Clouds Scattered Clouds 2400 ft
Scattered Clouds 20000 ft
Windchill 49 °F
Dew Point 39 °F
Humidity 68%
Rainfall 0.00 in
Snow Depth Not available.
UV 0 out of 12
Pollen .80 out of 12
PM2.5 Good
Flu Activity Sporadic
METAR KFWA 222154Z 06006KT 10SM SCT024 SCT200 09/04 A3030 RMK AO2 SLP266 T00940044

More Conditions Fewer Conditions

Pressure 30.32 in
Visibility 10.0 miles
Clouds Scattered Clouds 2400 ft
Scattered Clouds 20000 ft
Windchill 49 °F
Dew Point 39 °F
Humidity 68%
Rainfall 0.00 in
Snow Depth Not available.
UV 0 out of 12
Pollen .80 out of 12
PM2.5 Good
Flu Activity Sporadic
METAR KFWA 222154Z 06006KT 10SM SCT024 SCT200 09/04 A3030 RMK AO2 SLP266 T00940044

More Conditions Fewer Conditions

10-Day Weather Forecast

Almanac

Astronomy

Oct. 22, 2014 Rise Set
Actual Time 7:59 AM EDT 6:49 PM EDT
Civil Twilight 7:31 AM EDT 7:17 PM EDT
Nautical Twilight 6:59 AM EDT 7:49 PM EDT
Astronomical Twilight 6:27 AM EDT 8:21 PM EDT
Moon 6:39 AM EDT 6:16 PM EDT
Length of Visible Light 11h 45m
Length of Day
10h 49m
Tomorrow will be 2m 34s shorter.
Waning Crescent, 1% of the Moon is Illuminated
Today
Waning Crescent
Oct 23
New
Oct 30
First Quarter
Nov 6
Full
Nov 14
Last Quarter

Today's Extremes

State Highs State Lows

Community

WunderPhotos

Upload Photos

1,764,054 photos uploaded!

WunderBlogs® & News

Nearby

Air Quality

  Air Quality AQ Index Pollutant
Yesterday Good
PM2.5
Current Good
PM2.5
Wednesday Good
OZONE
Wednesday Good
PM2.5
Thursday Moderate
PM2.5
Thursday Good
OZONE
Friday Moderate
PM2.5
Friday Good
OZONE

Snow Depth

Station Depth Elevation
No new snow has been reported.

Earthquake Activity

City Distance Mag. Time & Date
No recent earthquake activity has been reported nearby.
Minimum magnitude displayed is 2.5.

Coastal Water Temperatures

Place Temperature
No Stations Reporting

Nearby Weather Stations